Time;durP1;ratioP1;P1;durP2;ratioP2;P2;SDS_P1;SDS_P2;PMS_P1;PMS_P2;Temp;Humidity;BMP_temperature;BMP_pressure;BME280_temperature;BME280_humidity;BME280_pressure;Samples;Min_cycle;Max_cycle;Signal;HPM_P1;HPM_P2
2021/04/02 00:00:22;;;;;;;54.63;22.55;;;13.40;67.40;;;;;;4991637;28;20037;-77
2021/04/02 00:02:47;;;;;;;63.47;25.00;;;13.40;67.30;;;;;;4989435;28;20081;-77
2021/04/02 00:05:15;;;;;;;58.70;24.35;;;13.30;67.60;;;;;;4987752;28;20034;-77
2021/04/02 00:07:41;;;;;;;69.97;25.50;;;13.20;67.80;;;;;;4983764;28;20100;-76
2021/04/02 00:10:23;;;;;;;80.28;23.85;;;13.20;68.20;;;;;;4984842;28;20493;-76
2021/04/02 00:12:49;;;;;;;64.97;25.17;;;13.20;68.60;;;;;;4984839;28;20039;-77
2021/04/02 00:15:17;;;;;;;65.22;24.88;;;13.20;69.20;;;;;;4988273;28;20600;-76
2021/04/02 00:17:43;;;;;;;55.53;24.25;;;13.10;70.10;;;;;;4985936;28;20472;-76
2021/04/02 00:20:13;;;;;;;65.40;25.90;;;13.00;70.50;;;;;;4987164;28;20105;-77
2021/04/02 00:22:39;;;;;;;71.30;27.38;;;13.10;70.90;;;;;;4987125;28;20572;-76
2021/04/02 00:25:05;;;;;;;69.28;26.70;;;13.00;71.30;;;;;;4985275;28;20034;-76
2021/04/02 00:27:30;;;;;;;67.18;27.42;;;12.90;72.40;;;;;;4985019;28;20041;-77
2021/04/02 00:29:56;;;;;;;69.05;27.63;;;12.80;72.80;;;;;;4985422;28;20030;-77
2021/04/02 00:32:21;;;;;;;64.97;26.27;;;12.70;73.10;;;;;;4986159;28;20046;-77
2021/04/02 00:34:47;;;;;;;75.07;28.20;;;12.60;73.60;;;;;;4986863;28;20034;-78
2021/04/02 00:37:13;;;;;;;78.55;29.13;;;12.60;75.20;;;;;;4996248;28;20046;-78
2021/04/02 00:39:39;;;;;;;63.53;29.35;;;12.60;75.80;;;;;;4988156;28;20045;-77
2021/04/02 00:42:05;;;;;;;70.68;29.42;;;12.60;76.10;;;;;;4994234;28;20037;-78
2021/04/02 00:44:31;;;;;;;70.85;30.98;;;12.50;77.20;;;;;;4990447;28;20255;-77
2021/04/02 00:46:56;;;;;;;76.05;29.83;;;12.50;77.60;;;;;;4989011;28;20038;-77
2021/04/02 00:49:22;;;;;;;84.80;30.15;;;12.50;78.40;;;;;;4990298;28;20039;-77
2021/04/02 00:51:48;;;;;;;85.35;31.27;;;12.40;78.80;;;;;;4989042;28;20081;-76
2021/04/02 00:54:13;;;;;;;69.20;29.40;;;12.40;79.00;;;;;;4994398;28;20034;-77
2021/04/02 00:56:39;;;;;;;70.60;29.77;;;12.30;79.70;;;;;;4986569;28;20066;-77
2021/04/02 00:59:05;;;;;;;74.03;30.00;;;12.30;80.70;;;;;;4988744;28;20452;-77
2021/04/02 01:01:31;;;;;;;65.35;28.77;;;12.30;81.30;;;;;;4998502;28;20062;-77
2021/04/02 01:03:57;;;;;;;80.80;31.38;;;12.30;81.70;;;;;;4989691;28;20110;-77
2021/04/02 01:06:29;;;;;;;73.35;30.35;;;12.40;81.50;;;;;;4988634;28;20042;-78
2021/04/02 01:08:56;;;;;;;83.47;31.45;;;12.40;81.30;;;;;;4987577;28;20038;-76
2021/04/02 01:11:23;;;;;;;77.50;31.38;;;12.40;81.40;;;;;;4990853;28;20049;-76
2021/04/02 01:13:53;;;;;;;66.93;28.67;;;12.30;81.80;;;;;;4988313;28;20069;-76
2021/04/02 01:16:30;;;;;;;74.13;29.98;;;12.30;81.60;;;;;;4992709;28;20039;-77
2021/04/02 01:19:14;;;;;;;64.88;25.80;;;12.20;81.20;;;;;;4998606;28;20474;-78
2021/04/02 01:21:49;;;;;;;68.68;28.10;;;12.20;81.50;;;;;;4990347;28;20483;-77
2021/04/02 01:24:25;;;;;;;;;;;12.20;81.90;;;;;;4990082;28;20035;-78
2021/04/02 01:27:25;;;;;;;62.42;25.88;;;12.10;81.90;;;;;;4989608;28;19933;-77
2021/04/02 01:29:54;;;;;;;61.83;24.17;;;12.00;82.40;;;;;;4990563;28;20710;-78
2021/04/02 01:32:26;;;;;;;54.10;23.52;;;12.10;82.40;;;;;;5005749;28;20038;-78
2021/04/02 01:35:09;;;;;;;70.15;24.77;;;12.10;82.10;;;;;;4988267;28;20046;-78
2021/04/02 01:37:44;;;;;;;57.60;23.25;;;12.00;82.10;;;;;;4997974;28;20182;-77
2021/04/02 01:40:11;;;;;;;67.53;25.25;;;12.00;82.90;;;;;;4988939;28;20141;-78
2021/04/02 01:42:40;;;;;;;63.92;26.13;;;12.00;82.80;;;;;;4992055;28;20084;-78
2021/04/02 01:45:10;;;;;;;57.13;24.52;;;11.90;83.00;;;;;;4990674;28;20376;-78
2021/04/02 01:47:37;;;;;;;59.83;23.05;;;12.00;83.30;;;;;;4991964;28;20592;-79
2021/04/02 01:50:05;;;;;;;65.65;24.33;;;11.90;83.10;;;;;;4993753;28;20074;-79
2021/04/02 01:52:31;;;;;;;55.92;22.88;;;11.80;83.00;;;;;;4990292;28;20045;-78
2021/04/02 01:54:58;;;;;;;49.67;23.10;;;11.80;83.30;;;;;;4987939;28;20046;-78
2021/04/02 01:57:27;;;;;;;57.40;24.05;;;11.90;83.40;;;;;;4988966;28;20034;-79
2021/04/02 01:59:54;;;;;;;59.35;24.58;;;11.90;83.10;;;;;;4989156;28;20064;-79
2021/04/02 02:02:22;;;;;;;51.40;22.27;;;11.90;83.80;;;;;;4989507;28;20044;-79
2021/04/02 02:04:49;;;;;;;48.33;22.42;;;11.70;83.60;;;;;;4990321;28;20077;-78
2021/04/02 02:07:15;;;;;;;54.35;22.52;;;11.70;83.90;;;;;;4991567;28;20042;-78
2021/04/02 02:09:44;;;;;;;56.92;21.15;;;11.60;84.30;;;;;;4990097;28;20104;-78
2021/04/02 02:12:13;;;;;;;50.08;20.05;;;11.50;85.10;;;;;;4990825;28;20042;-78
2021/04/02 02:14:42;;;;;;;38.33;16.27;;;11.60;84.70;;;;;;4992472;28;20042;-79
2021/04/02 02:17:12;;;;;;;39.05;16.85;;;11.60;84.10;;;;;;4991019;28;20046;-78
2021/04/02 02:19:39;;;;;;;34.13;16.17;;;11.50;83.90;;;;;;4990575;28;20053;-79
2021/04/02 02:22:07;;;;;;;42.08;17.75;;;11.50;84.20;;;;;;4991606;28;20042;-79
2021/04/02 02:24:35;;;;;;;43.28;17.65;;;11.30;84.80;;;;;;4989917;28;20103;-79
2021/04/02 02:27:01;;;;;;;46.92;18.85;;;11.30;85.50;;;;;;4993758;28;20042;-78
2021/04/02 02:29:27;;;;;;;45.95;18.40;;;11.30;86.10;;;;;;4989751;28;20038;-75
2021/04/02 02:31:53;;;;;;;40.83;19.52;;;11.20;87.00;;;;;;4989129;28;20047;-76
2021/04/02 02:34:19;;;;;;;54.58;21.08;;;11.20;88.20;;;;;;4990539;28;20042;-75
2021/04/02 02:36:44;;;;;;;56.88;18.75;;;11.10;88.90;;;;;;4989591;28;21863;-76
2021/04/02 02:39:13;;;;;;;48.50;20.10;;;11.00;89.20;;;;;;4991599;28;20034;-79
2021/04/02 02:41:40;;;;;;;48.78;18.45;;;11.00;89.50;;;;;;4990415;28;20167;-76
2021/04/02 02:44:05;;;;;;;40.55;18.33;;;10.90;90.10;;;;;;4989801;28;20043;-75
2021/04/02 02:46:32;;;;;;;35.58;15.95;;;10.90;89.90;;;;;;4990156;28;20125;-78
2021/04/02 02:49:14;;;;;;;45.92;16.52;;;10.90;89.90;;;;;;4999580;28;20144;-76
2021/04/02 02:51:42;;;;;;;36.35;16.63;;;10.80;90.00;;;;;;4990908;28;20372;-76
2021/04/02 02:54:12;;;;;;;33.15;14.18;;;10.80;90.00;;;;;;4990041;28;20429;-75
2021/04/02 02:56:41;;;;;;;35.92;15.60;;;10.80;89.90;;;;;;4989563;28;20408;-76
2021/04/02 02:59:09;;;;;;;35.75;14.40;;;10.70;90.00;;;;;;4989896;28;20045;-78
2021/04/02 03:01:37;;;;;;;32.60;15.48;;;10.60;90.20;;;;;;4989283;28;20096;-78
2021/04/02 03:04:06;;;;;;;34.38;13.90;;;10.70;90.50;;;;;;4990000;28;20615;-78
2021/04/02 03:06:36;;;;;;;40.88;16.13;;;10.60;90.60;;;;;;4989559;28;20128;-78
2021/04/02 03:09:05;;;;;;;34.10;14.80;;;10.50;90.80;;;;;;4990420;28;20057;-79
2021/04/02 03:11:31;;;;;;;32.70;14.93;;;10.50;91.20;;;;;;4987940;28;20041;-78
2021/04/02 03:13:58;;;;;;;36.25;16.33;;;10.40;91.60;;;;;;4989749;28;20046;-78
2021/04/02 03:16:26;;;;;;;37.40;17.20;;;10.50;92.40;;;;;;4990101;28;20041;-78
2021/04/02 03:18:55;;;;;;;43.50;16.05;;;10.40;92.50;;;;;;4989414;28;20038;-79
2021/04/02 03:21:21;;;;;;;38.88;15.35;;;10.40;92.30;;;;;;4990831;28;20115;-78
2021/04/02 03:23:50;;;;;;;28.95;13.75;;;10.40;92.20;;;;;;4990278;28;20173;-78
2021/04/02 03:26:17;;;;;;;33.92;14.95;;;10.40;91.80;;;;;;4991547;28;20038;-79
2021/04/02 03:28:44;;;;;;;34.80;14.63;;;10.30;91.80;;;;;;4991466;28;20133;-78
2021/04/02 03:31:13;;;;;;;32.97;13.93;;;10.30;91.90;;;;;;4993003;28;20042;-76
2021/04/02 03:33:54;;;;;;;28.05;12.30;;;10.20;91.70;;;;;;4996514;28;20074;-76
2021/04/02 03:36:23;;;;;;;29.02;11.20;;;10.20;90.50;;;;;;4988681;28;20047;-76
2021/04/02 03:38:49;;;;;;;27.92;11.50;;;10.20;90.10;;;;;;4989328;28;20506;-78
2021/04/02 03:41:21;;;;;;;30.08;11.82;;;10.20;90.30;;;;;;4992990;28;20034;-76
2021/04/02 03:43:48;;;;;;;32.50;11.32;;;10.10;90.30;;;;;;4990783;28;20030;-76
2021/04/02 03:46:14;;;;;;;27.92;11.85;;;10.10;90.50;;;;;;4989254;28;20425;-76
2021/04/02 03:48:42;;;;;;;31.00;12.52;;;10.10;90.70;;;;;;4996968;28;20038;-76
2021/04/02 03:51:11;;;;;;;35.00;10.43;;;10.00;90.60;;;;;;4993631;28;20034;-75
2021/04/02 03:53:43;;;;;;;31.40;11.63;;;9.90;90.60;;;;;;4992351;28;20048;-79
2021/04/02 03:56:14;;;;;;;30.48;10.40;;;9.80;90.80;;;;;;4987487;28;20043;-76
2021/04/02 03:58:43;;;;;;;27.05;9.70;;;9.80;90.60;;;;;;4990732;28;20037;-76
2021/04/02 04:01:18;;;;;;;24.30;8.80;;;9.70;90.30;;;;;;4989116;28;20045;-76
2021/04/02 04:03:47;;;;;;;22.23;8.02;;;9.60;88.70;;;;;;4995962;28;20042;-75
2021/04/02 04:06:16;;;;;;;21.38;7.72;;;9.50;86.60;;;;;;4990613;28;20088;-77
2021/04/02 04:08:44;;;;;;;17.50;7.30;;;9.50;86.30;;;;;;4992555;28;20044;-77
2021/04/02 04:11:11;;;;;;;15.38;6.90;;;9.40;84.80;;;;;;4994084;28;20077;-76
2021/04/02 04:13:38;;;;;;;16.58;6.63;;;9.40;85.20;;;;;;4987830;28;20177;-79
2021/04/02 04:16:06;;;;;;;21.17;6.47;;;9.30;85.40;;;;;;4984109;28;20026;-76
2021/04/02 04:18:33;;;;;;;19.02;5.63;;;9.20;84.70;;;;;;4986390;28;20031;-76
2021/04/02 04:21:01;;;;;;;14.13;5.80;;;9.10;84.40;;;;;;4987624;28;20449;-79
2021/04/02 04:23:28;;;;;;;10.18;4.55;;;9.00;84.20;;;;;;4989928;28;20034;-76
2021/04/02 04:25:56;;;;;;;12.68;4.80;;;9.00;82.50;;;;;;4986254;28;20137;-77
2021/04/02 04:28:23;;;;;;;17.23;5.25;;;9.00;83.00;;;;;;4985881;28;20468;-76
2021/04/02 04:30:51;;;;;;;13.27;5.13;;;8.90;81.80;;;;;;4984971;28;21025;-77
2021/04/02 04:33:18;;;;;;;10.02;4.63;;;8.80;81.70;;;;;;4986105;28;20046;-76
2021/04/02 04:35:46;;;;;;;7.63;3.60;;;8.70;80.10;;;;;;4989559;28;20401;-78
2021/04/02 04:38:13;;;;;;;11.20;3.38;;;8.70;79.90;;;;;;4988077;28;20035;-76
2021/04/02 04:40:39;;;;;;;13.35;3.80;;;8.70;79.20;;;;;;4988522;28;20125;-76
2021/04/02 04:43:09;;;;;;;12.32;3.25;;;8.70;77.80;;;;;;4984133;28;20100;-76
2021/04/02 04:45:35;;;;;;;12.88;3.70;;;8.60;77.90;;;;;;4985861;28;20468;-77
2021/04/02 04:48:00;;;;;;;6.47;2.80;;;8.50;78.10;;;;;;4986011;28;20038;-77
2021/04/02 04:50:26;;;;;;;7.88;2.75;;;8.50;77.70;;;;;;4987001;28;20042;-76
2021/04/02 04:53:16;;;;;;;10.18;3.10;;;8.40;77.30;;;;;;4988179;28;20516;-77
2021/04/02 04:55:44;;;;;;;9.05;2.95;;;8.40;76.90;;;;;;4991669;28;20031;-78
2021/04/02 04:58:13;;;;;;;10.65;3.00;;;8.40;76.80;;;;;;4983769;28;20034;-77
2021/04/02 05:00:41;;;;;;;7.03;2.17;;;8.30;76.80;;;;;;4985648;28;20778;-77
2021/04/02 05:03:08;;;;;;;7.53;2.30;;;8.20;75.70;;;;;;4986497;28;20250;-76
2021/04/02 05:05:38;;;;;;;13.40;2.33;;;8.20;76.50;;;;;;4987055;28;20092;-77
2021/04/02 05:08:09;;;;;;;13.13;3.70;;;8.10;76.30;;;;;;4987240;28;20042;-76
2021/04/02 05:10:36;;;;;;;9.45;2.75;;;8.10;75.60;;;;;;4986226;28;20042;-77
2021/04/02 05:13:03;;;;;;;11.85;2.78;;;8.10;74.90;;;;;;4984550;28;20034;-76
2021/04/02 05:15:28;;;;;;;13.63;2.38;;;8.10;74.90;;;;;;4988297;28;20049;-77
2021/04/02 05:17:55;;;;;;;5.97;2.15;;;8.00;75.00;;;;;;4997100;28;20038;-76
2021/04/02 05:20:31;;;;;;;5.07;2.08;;;8.00;74.70;;;;;;4988287;28;20081;-76
2021/04/02 05:22:56;;;;;;;5.07;1.90;;;8.00;74.90;;;;;;4987934;28;20057;-76
2021/04/02 05:25:22;;;;;;;5.57;2.50;;;7.90;74.10;;;;;;4987031;28;20073;-76
2021/04/02 05:27:47;;;;;;;7.65;1.77;;;7.90;74.40;;;;;;4990094;28;20057;-76
2021/04/02 05:30:15;;;;;;;4.80;2.00;;;7.90;74.70;;;;;;4990919;28;20448;-76
2021/04/02 05:32:41;;;;;;;8.07;2.30;;;7.90;75.30;;;;;;4990034;28;20128;-76
2021/04/02 05:35:07;;;;;;;7.32;2.20;;;7.90;75.20;;;;;;4991417;28;20091;-76
2021/04/02 05:37:33;;;;;;;15.73;3.25;;;7.90;75.00;;;;;;4992824;28;20044;-76
2021/04/02 05:39:58;;;;;;;8.07;2.42;;;7.90;75.20;;;;;;4994877;28;20038;-76
2021/04/02 05:42:25;;;;;;;5.70;2.33;;;7.90;75.40;;;;;;4991787;28;20492;-76
2021/04/02 05:44:52;;;;;;;10.20;2.67;;;7.90;75.60;;;;;;4993333;28;20041;-76
2021/04/02 05:47:18;;;;;;;10.35;2.67;;;7.90;75.70;;;;;;4994665;28;20507;-76
2021/04/02 05:49:48;;;;;;;7.82;3.05;;;7.90;75.50;;;;;;4995633;28;20456;-76
2021/04/02 05:52:16;;;;;;;7.13;2.83;;;8.00;76.10;;;;;;4995862;28;20608;-76
2021/04/02 05:54:45;;;;;;;7.32;2.72;;;8.00;76.00;;;;;;4993661;28;20050;-76
2021/04/02 05:57:11;;;;;;;12.13;2.83;;;8.00;76.10;;;;;;4993829;28;20327;-76
2021/04/02 05:59:38;;;;;;;9.25;2.88;;;8.10;76.20;;;;;;4993949;28;20153;-77
2021/04/02 06:02:04;;;;;;;6.43;2.88;;;8.10;76.40;;;;;;4991004;28;20038;-76
2021/04/02 06:04:31;;;;;;;12.10;3.60;;;8.10;76.20;;;;;;4992359;28;20038;-76
2021/04/02 06:06:57;;;;;;;14.38;2.97;;;8.20;76.90;;;;;;4990696;28;20041;-78
2021/04/02 06:09:24;;;;;;;11.68;3.55;;;8.30;76.20;;;;;;4992834;28;20042;-77
2021/04/02 06:11:50;;;;;;;10.57;3.80;;;8.30;76.30;;;;;;4989979;28;20395;-77
2021/04/02 06:14:15;;;;;;;11.40;4.07;;;8.40;76.20;;;;;;4990258;28;20045;-76
2021/04/02 06:16:50;;;;;;;17.75;4.40;;;8.40;76.60;;;;;;4991787;28;20042;-76
2021/04/02 06:19:16;;;;;;;9.43;3.70;;;8.50;76.40;;;;;;4991978;28;20042;-77
2021/04/02 06:21:55;;;;;;;9.43;3.58;;;8.50;76.40;;;;;;4992927;28;20030;-76
2021/04/02 06:24:38;;;;;;;6.68;3.08;;;8.40;76.30;;;;;;4991355;28;20045;-77
2021/04/02 06:27:05;;;;;;;11.45;3.63;;;8.50;76.40;;;;;;4991294;28;20042;-77
2021/04/02 06:29:39;;;;;;;6.72;3.58;;;8.50;76.30;;;;;;4986810;28;20057;-77
2021/04/02 06:32:07;;;;;;;18.60;4.37;;;8.60;76.30;;;;;;4990376;28;20619;-76
2021/04/02 06:34:33;;;;;;;11.40;4.15;;;8.60;77.80;;;;;;4991596;28;20045;-76
2021/04/02 06:37:00;;;;;;;9.05;5.28;;;8.70;76.50;;;;;;4991551;28;20501;-77
2021/04/02 06:39:30;;;;;;;10.18;4.85;;;8.70;76.10;;;;;;4991771;28;20765;-76
2021/04/02 06:41:58;;;;;;;10.77;4.32;;;8.90;76.60;;;;;;4992087;28;20740;-78
2021/04/02 06:44:27;;;;;;;14.80;4.25;;;9.00;75.70;;;;;;4994475;28;20033;-78
2021/04/02 06:46:56;;;;;;;8.95;4.25;;;9.20;75.90;;;;;;4994910;28;20049;-77
2021/04/02 06:49:23;;;;;;;10.10;4.47;;;9.10;74.70;;;;;;4996462;28;20092;-77
2021/04/02 06:51:51;;;;;;;16.05;4.68;;;9.20;75.70;;;;;;4993048;28;20139;-77
2021/04/02 06:54:19;;;;;;;9.23;4.10;;;9.30;74.90;;;;;;4995913;28;20046;-77
2021/04/02 06:56:53;;;;;;;8.70;4.07;;;9.60;72.60;;;;;;4992456;28;21017;-77
2021/04/02 06:59:19;;;;;;;12.40;4.25;;;9.90;70.80;;;;;;4994375;28;20037;-77
2021/04/02 07:01:48;;;;;;;12.20;4.75;;;10.20;68.60;;;;;;4995121;28;20038;-77
2021/04/02 07:04:20;;;;;;;7.78;4.20;;;10.60;66.50;;;;;;4991181;28;20050;-77
2021/04/02 07:06:48;;;;;;;14.20;3.78;;;10.50;64.40;;;;;;4992229;28;20133;-78
2021/04/02 07:09:18;;;;;;;9.18;4.18;;;10.50;64.90;;;;;;4995618;28;20034;-78
2021/04/02 07:11:46;;;;;;;13.15;4.35;;;10.60;64.80;;;;;;4995072;28;20097;-79
2021/04/02 07:14:12;;;;;;;9.65;4.80;;;10.60;64.40;;;;;;5023021;28;20084;-84
2021/04/02 07:16:38;;;;;;;14.10;4.40;;;10.00;64.60;;;;;;5009433;28;20049;-81
2021/04/02 07:19:05;;;;;;;13.40;4.50;;;10.50;64.60;;;;;;5018611;28;20033;-79
2021/04/02 07:21:32;;;;;;;7.55;4.70;;;11.10;63.30;;;;;;5019167;28;20139;-80
2021/04/02 07:24:00;;;;;;;8.25;4.57;;;11.60;61.90;;;;;;5016129;28;20037;-80
2021/04/02 07:26:27;;;;;;;9.70;4.50;;;12.00;58.00;;;;;;5010104;28;20038;-80
2021/04/02 07:28:53;;;;;;;12.45;5.25;;;11.90;57.50;;;;;;5002680;28;20082;-80
2021/04/02 07:31:21;;;;;;;14.57;5.15;;;12.00;56.40;;;;;;5004750;28;20557;-80
2021/04/02 07:33:48;;;;;;;10.10;5.10;;;11.80;56.40;;;;;;5006336;28;20034;-80
2021/04/02 07:36:17;;;;;;;8.65;4.78;;;11.60;57.50;;;;;;5011935;28;20276;-79
2021/04/02 07:38:52;;;;;;;12.45;5.07;;;11.30;58.50;;;;;;5008406;28;20110;-80
2021/04/02 07:41:19;;;;;;;13.75;4.93;;;11.30;60.10;;;;;;5014839;28;20129;-79
2021/04/02 07:43:54;;;;;;;9.35;5.28;;;11.10;60.70;;;;;;5011343;28;20037;-80
2021/04/02 07:46:27;;;;;;;10.05;5.82;;;10.70;60.10;;;;;;5012241;28;20060;-79
2021/04/02 07:49:08;;;;;;;15.63;5.77;;;10.50;61.60;;;;;;5001666;28;20517;-79
2021/04/02 07:51:48;;;;;;;16.63;6.28;;;10.40;62.10;;;;;;5008076;28;20067;-78
2021/04/02 07:54:43;;;;;;;13.65;6.03;;;10.60;62.20;;;;;;4997874;28;20030;-79
2021/04/02 07:57:12;;;;;;;8.98;5.85;;;11.10;60.80;;;;;;5005826;28;20034;-80
2021/04/02 07:59:43;;;;;;;12.15;5.90;;;12.00;58.60;;;;;;4998341;28;20082;-79
2021/04/02 08:02:11;;;;;;;13.05;6.05;;;11.80;56.70;;;;;;5006090;28;20030;-80
2021/04/02 08:05:31;;;;;;;11.30;5.35;;;12.40;55.30;;;;;;5005020;28;20124;-80
2021/04/02 08:07:57;;;;;;;8.65;5.10;;;13.10;53.50;;;;;;4994263;28;20042;-80
2021/04/02 08:10:24;;;;;;;14.70;6.38;;;12.80;52.50;;;;;;4997834;28;20033;-80
2021/04/02 08:12:53;;;;;;;10.18;5.63;;;12.60;52.40;;;;;;4997639;28;20034;-82
2021/04/02 08:15:20;;;;;;;11.05;5.93;;;13.00;51.60;;;;;;4999846;28;20520;-79
2021/04/02 08:17:47;;;;;;;13.40;6.60;;;12.90;51.10;;;;;;4984369;28;20050;-79
2021/04/02 08:20:18;;;;;;;12.90;6.38;;;12.60;51.00;;;;;;4995231;28;20042;-78
2021/04/02 08:22:47;;;;;;;14.77;7.70;;;11.60;54.70;;;;;;5001347;28;20097;-79
2021/04/02 08:25:14;;;;;;;12.38;6.53;;;12.00;56.10;;;;;;5001366;28;20520;-79
2021/04/02 08:27:42;;;;;;;11.80;6.85;;;12.00;55.70;;;;;;5000062;28;20053;-79
2021/04/02 08:30:12;;;;;;;10.60;6.22;;;11.60;54.70;;;;;;5001106;28;20092;-79
2021/04/02 08:32:48;;;;;;;15.75;6.57;;;12.10;56.60;;;;;;4996519;28;20070;-79
2021/04/02 08:35:15;;;;;;;14.70;7.07;;;12.70;54.20;;;;;;4994296;28;20034;-80
2021/04/02 08:38:01;;;;;;;15.77;7.03;;;12.50;51.80;;;;;;5012578;28;20382;-81
2021/04/02 08:40:27;;;;;;;12.35;6.90;;;11.70;55.00;;;;;;4998278;28;20100;-80
2021/04/02 08:43:00;;;;;;;12.98;6.63;;;11.90;55.10;;;;;;4989840;28;20085;-83
2021/04/02 08:45:33;;;;;;;15.30;7.35;;;12.70;57.30;;;;;;4999508;28;20120;-80
2021/04/02 08:47:58;;;;;;;16.10;8.35;;;13.50;52.10;;;;;;4996198;28;20046;-79
2021/04/02 08:50:24;;;;;;;12.93;7.82;;;13.30;50.40;;;;;;5001215;28;20284;-79
2021/04/02 08:52:50;;;;;;;14.48;7.55;;;13.60;47.80;;;;;;4979802;28;20042;-78
2021/04/02 08:55:15;;;;;;;18.92;8.05;;;13.60;48.50;;;;;;4980572;28;20037;-79
2021/04/02 08:57:45;;;;;;;18.00;7.78;;;14.20;47.00;;;;;;4980342;28;20070;-80
2021/04/02 09:00:11;;;;;;;15.15;7.55;;;14.40;45.50;;;;;;4995030;28;20045;-79
2021/04/02 09:02:37;;;;;;;14.52;8.02;;;14.60;44.50;;;;;;4994657;28;20041;-81
2021/04/02 09:05:07;;;;;;;12.80;6.85;;;15.20;44.80;;;;;;5001483;28;20057;-82
2021/04/02 09:07:41;;;;;;;12.32;7.25;;;15.20;43.80;;;;;;4995698;28;20038;-82
2021/04/02 09:10:17;;;;;;;15.15;7.55;;;15.90;40.80;;;;;;5010994;28;20052;-81
2021/04/02 09:12:48;;;;;;;10.48;6.50;;;17.00;37.60;;;;;;5002308;28;20041;-80
2021/04/02 09:15:28;;;;;;;16.40;7.72;;;18.00;33.80;;;;;;5000922;28;20038;-83
2021/04/02 09:17:54;;;;;;;14.63;7.38;;;18.90;30.30;;;;;;5003827;28;20042;-83
2021/04/02 09:20:19;;;;;;;13.95;7.03;;;18.40;29.90;;;;;;5005446;28;20057;-81
2021/04/02 09:22:46;;;;;;;18.88;7.82;;;17.60;31.20;;;;;;5003504;28;20057;-82
2021/04/02 09:25:15;;;;;;;15.90;7.68;;;18.00;31.10;;;;;;5003054;28;20779;-81
2021/04/02 09:27:41;;;;;;;16.60;7.90;;;18.80;28.70;;;;;;5005547;28;20058;-81
2021/04/02 09:30:08;;;;;;;12.98;7.18;;;18.50;28.80;;;;;;5004086;28;20038;-81
2021/04/02 09:32:34;;;;;;;13.98;7.63;;;18.20;28.50;;;;;;5007466;28;20038;-83
2021/04/02 09:35:03;;;;;;;18.63;8.30;;;15.90;32.40;;;;;;5006795;28;20486;-84
2021/04/02 09:37:30;;;;;;;18.48;7.88;;;15.20;36.50;;;;;;5005122;28;20827;-82
2021/04/02 09:40:02;;;;;;;15.38;8.07;;;15.30;37.50;;;;;;5003024;28;20034;-81
2021/04/02 09:42:28;;;;;;;12.35;7.95;;;14.40;39.80;;;;;;5003463;28;20049;-81
2021/04/02 09:45:00;;;;;;;14.45;7.72;;;14.50;40.70;;;;;;5001458;28;20046;-82
2021/04/02 09:47:26;;;;;;;16.15;7.72;;;15.50;37.20;;;;;;4999949;28;20046;-83
2021/04/02 09:49:52;;;;;;;16.67;8.65;;;15.00;38.90;;;;;;5006357;28;20041;-83
2021/04/02 09:52:18;;;;;;;12.25;8.10;;;14.50;40.60;;;;;;5005770;28;20041;-83
2021/04/02 09:54:44;;;;;;;16.63;8.43;;;14.30;41.60;;;;;;5000907;28;20034;-78
2021/04/02 09:57:10;;;;;;;15.80;8.27;;;14.20;42.90;;;;;;4994065;28;20068;-80
2021/04/02 09:59:36;;;;;;;14.25;7.82;;;13.80;42.20;;;;;;5000030;28;20689;-82
2021/04/02 10:02:02;;;;;;;14.05;8.48;;;14.60;39.90;;;;;;5001917;28;20042;-83
2021/04/02 10:04:28;;;;;;;13.23;7.38;;;15.90;37.90;;;;;;5004242;28;20046;-83
2021/04/02 10:06:54;;;;;;;16.13;7.35;;;16.70;33.60;;;;;;5012168;28;20250;-82
2021/04/02 10:09:20;;;;;;;14.77;7.10;;;15.40;34.40;;;;;;4998491;28;20038;-82
2021/04/02 10:11:48;;;;;;;16.77;7.75;;;14.90;35.50;;;;;;4999410;28;20042;-83
2021/04/02 10:14:15;;;;;;;14.57;7.32;;;16.20;34.40;;;;;;4999448;28;20035;-82
2021/04/02 10:16:42;;;;;;;14.38;6.72;;;17.10;30.80;;;;;;5005013;28;20093;-83
2021/04/02 10:19:07;;;;;;;15.98;8.35;;;18.10;29.10;;;;;;5000671;28;20034;-82
2021/04/02 10:21:34;;;;;;;18.55;7.60;;;19.50;25.90;;;;;;4996627;28;20073;-83
2021/04/02 10:24:00;;;;;;;13.43;7.20;;;18.20;25.30;;;;;;4997126;28;20030;-85
2021/04/02 10:26:26;;;;;;;14.73;6.82;;;17.40;28.20;;;;;;4996464;28;20049;-85
2021/04/02 10:28:52;;;;;;;15.45;8.27;;;17.20;27.90;;;;;;4998041;28;20030;-84
2021/04/02 10:31:18;;;;;;;17.10;7.50;;;17.80;28.80;;;;;;4998815;28;20034;-84
2021/04/02 10:33:44;;;;;;;15.45;7.45;;;18.40;26.40;;;;;;5000058;28;20048;-82
2021/04/02 10:36:10;;;;;;;15.90;6.63;;;18.90;25.60;;;;;;4996164;28;20088;-84
2021/04/02 10:38:36;;;;;;;12.07;7.07;;;19.60;25.80;;;;;;4999397;28;20042;-83
2021/04/02 10:41:02;;;;;;;13.73;7.20;;;20.70;25.20;;;;;;5002246;28;20588;-83
2021/04/02 10:43:28;;;;;;;12.77;7.32;;;20.80;20.40;;;;;;4994889;28;20042;-81
2021/04/02 10:45:54;;;;;;;12.95;7.00;;;20.10;20.80;;;;;;5003297;28;20053;-81
2021/04/02 10:48:19;;;;;;;15.43;7.50;;;19.90;21.10;;;;;;4989998;28;21314;-78
2021/04/02 10:50:46;;;;;;;14.40;7.22;;;20.00;20.30;;;;;;4986953;28;20468;-78
2021/04/02 10:53:13;;;;;;;12.98;8.00;;;20.30;20.20;;;;;;4984001;28;20502;-78
2021/04/02 10:55:39;;;;;;;9.05;6.30;;;20.50;21.00;;;;;;4985971;28;20053;-78
2021/04/02 10:58:06;;;;;;;12.30;7.10;;;19.90;21.30;;;;;;4986477;28;20046;-78
2021/04/02 11:00:34;;;;;;;12.20;6.78;;;18.60;22.40;;;;;;4986496;28;20046;-78
2021/04/02 11:02:59;;;;;;;13.25;7.45;;;18.60;22.30;;;;;;4986123;28;20121;-77
2021/04/02 11:05:25;;;;;;;11.43;7.60;;;20.40;20.90;;;;;;4988992;28;20072;-78
2021/04/02 11:07:53;;;;;;;11.27;6.75;;;20.10;20.50;;;;;;4982764;28;20042;-78
2021/04/02 11:10:19;;;;;;;10.55;6.32;;;19.80;19.20;;;;;;4988165;28;20101;-76
2021/04/02 11:12:44;;;;;;;13.55;7.18;;;20.30;19.10;;;;;;4988417;28;20645;-76
2021/04/02 11:15:14;;;;;;;11.55;6.45;;;19.00;19.70;;;;;;4992083;28;20630;-76
2021/04/02 11:17:44;;;;;;;10.55;6.25;;;20.10;19.20;;;;;;4998399;28;20038;-76
2021/04/02 11:20:11;;;;;;;10.27;6.60;;;20.90;19.60;;;;;;4991423;28;20041;-76
2021/04/02 11:22:37;;;;;;;14.73;7.68;;;20.10;19.30;;;;;;4992442;28;20049;-76
2021/04/02 11:25:05;;;;;;;10.70;6.53;;;21.10;17.80;;;;;;4993922;28;20068;-77
2021/04/02 11:27:31;;;;;;;11.65;6.07;;;20.10;18.70;;;;;;4995089;28;20045;-76
2021/04/02 11:29:56;;;;;;;8.98;5.60;;;20.20;19.90;;;;;;4994660;28;20441;-76
2021/04/02 11:32:23;;;;;;;6.78;5.53;;;20.60;18.70;;;;;;4993242;28;20046;-76
2021/04/02 11:34:48;;;;;;;10.90;5.97;;;21.80;18.90;;;;;;4994148;28;20058;-76
2021/04/02 11:37:14;;;;;;;14.43;6.32;;;21.30;17.90;;;;;;4993209;28;20042;-80
2021/04/02 11:39:40;;;;;;;8.52;5.22;;;20.30;18.20;;;;;;4995065;28;20482;-79
2021/04/02 11:42:06;;;;;;;11.02;5.97;;;21.20;17.60;;;;;;5000328;28;20034;-79
2021/04/02 11:44:32;;;;;;;13.05;5.20;;;21.10;17.10;;;;;;4997449;28;20139;-79
2021/04/02 11:46:57;;;;;;;9.10;6.35;;;20.70;17.70;;;;;;4996242;28;20042;-78
2021/04/02 11:49:23;;;;;;;7.25;4.70;;;20.70;18.40;;;;;;4999866;28;20034;-79
2021/04/02 11:51:48;;;;;;;8.63;5.75;;;20.30;18.10;;;;;;4991817;28;20038;-78
2021/04/02 11:54:14;;;;;;;9.10;5.47;;;19.60;18.80;;;;;;4999346;28;20057;-79
2021/04/02 11:56:40;;;;;;;7.63;5.10;;;20.20;19.70;;;;;;4995181;28;20454;-78
2021/04/02 11:59:06;;;;;;;9.70;4.75;;;20.20;18.50;;;;;;4999913;28;20038;-79
2021/04/02 12:01:31;;;;;;;9.35;5.40;;;20.50;18.20;;;;;;5002139;28;20038;-80
2021/04/02 12:03:57;;;;;;;8.55;5.05;;;20.90;17.30;;;;;;5000375;28;20038;-82
2021/04/02 12:06:23;;;;;;;8.05;4.88;;;21.00;17.20;;;;;;5000687;28;20117;-81
2021/04/02 12:08:48;;;;;;;9.43;4.35;;;21.30;17.00;;;;;;5000413;28;20062;-80
2021/04/02 12:11:14;;;;;;;9.43;4.78;;;21.60;17.00;;;;;;4998250;28;20662;-81
2021/04/02 12:13:39;;;;;;;7.13;4.50;;;21.10;15.40;;;;;;4995402;28;20042;-81
2021/04/02 12:16:05;;;;;;;7.78;4.53;;;20.60;16.50;;;;;;4997805;28;20041;-82
2021/04/02 12:18:31;;;;;;;7.93;4.25;;;20.50;16.80;;;;;;4994502;28;20073;-80
2021/04/02 12:20:57;;;;;;;6.07;4.07;;;20.80;16.10;;;;;;4993130;28;20759;-80
2021/04/02 12:23:22;;;;;;;6.00;3.90;;;20.50;15.70;;;;;;4994152;28;20623;-80
2021/04/02 12:25:48;;;;;;;6.47;4.43;;;20.80;15.70;;;;;;4992663;28;20112;-80
2021/04/02 12:28:14;;;;;;;6.70;4.30;;;20.50;15.60;;;;;;4993025;28;20050;-82
2021/04/02 12:30:40;;;;;;;6.95;4.47;;;20.20;16.80;;;;;;4997188;28;20042;-80
2021/04/02 12:33:06;;;;;;;5.68;4.03;;;20.10;16.80;;;;;;5000880;28;20092;-80
2021/04/02 12:35:33;;;;;;;7.57;4.70;;;20.70;17.40;;;;;;4998728;28;20041;-79
2021/04/02 12:37:58;;;;;;;6.90;4.47;;;20.60;16.90;;;;;;4999714;28;20034;-80
2021/04/02 12:40:27;;;;;;;8.20;4.78;;;20.50;16.70;;;;;;5002811;28;20048;-81
2021/04/02 12:42:53;;;;;;;8.60;4.75;;;21.20;16.30;;;;;;5007411;28;20130;-82